Time,TemperatureF,DewpointF,PressureIn,WindDirection,WindDirectionDegrees,WindSpeedMPH,WindSpeedGustMPH,Humidity,HourlyPrecipIn,Conditions,Clouds,dailyrainin,SoftwareType,DateUTC
2013-03-22 00:00:00,28.0,10.3,29.87,NE,45,0.0,4.0,47,0.00,,,0.00,WUHU21423XXSP,2013-03-22 04:00:00,
2013-03-22 00:05:00,28.0,10.3,29.87,NE,45,6.5,6.5,47,0.00,,,0.00,WUHU21423XXSP,2013-03-22 04:05:00,
2013-03-22 00:07:00,28.0,10.3,29.87,ENE,67,1.6,6.5,47,0.00,,,0.00,WUHU21423XXSP,2013-03-22 04:07:00,
2013-03-22 00:13:00,28.0,10.3,29.87,East,90,0.0,6.5,47,0.00,,,0.00,WUHU21423XXSP,2013-03-22 04:13:00,
2013-03-22 00:20:00,28.2,10.3,29.87,SSW,202,0.0,6.0,47,0.00,,,0.00,WUHU21423XXSP,2013-03-22 04:20:00,
2013-03-22 00:26:00,27.7,10.5,29.87,ESE,112,0.0,6.0,48,0.00,,,0.00,WUHU21423XXSP,2013-03-22 04:26:00,
2013-03-22 00:32:00,27.1,9.9,29.87,ESE,112,0.0,2.7,48,0.00,,,0.00,WUHU21423XXSP,2013-03-22 04:32:00,
2013-03-22 00:39:00,27.3,10.1,29.87,SSE,157,3.1,3.1,48,0.00,,,0.00,WUHU21423XXSP,2013-03-22 04:39:00,
2013-03-22 00:45:00,26.8,10.1,29.87,ESE,112,0.0,3.1,49,0.00,,,0.00,WUHU21423XXSP,2013-03-22 04:45:00,
2013-03-22 00:52:00,26.4,10.4,29.88,SSE,157,0.0,2.9,50,0.00,,,0.00,WUHU21423XXSP,2013-03-22 04:52:00,
2013-03-22 00:58:00,27.0,10.8,29.88,SSW,202,0.0,2.9,50,0.00,,,0.00,WUHU21423XXSP,2013-03-22 04:58:00,
2013-03-22 01:03:00,27.1,10.4,29.88,SSW,202,0.0,0.0,49,0.00,,,0.00,WUHU21423XXSP,2013-03-22 05:03:00,
2013-03-22 01:09:00,27.1,10.4,29.88,SW,225,0.0,0.0,49,0.00,,,0.00,WUHU21423XXSP,2013-03-22 05:09:00,
2013-03-22 01:15:00,27.1,10.4,29.88,NW,315,0.0,0.0,49,0.00,,,0.00,WUHU21423XXSP,2013-03-22 05:15:00,
2013-03-22 01:22:00,27.3,10.1,29.88,SSW,202,2.0,2.0,48,0.00,,,0.00,WUHU21423XXSP,2013-03-22 05:22:00,
2013-03-22 01:28:00,28.0,10.8,29.88,WSW,247,0.0,2.0,48,0.00,,,0.00,WUHU21423XXSP,2013-03-22 05:28:00,
2013-03-22 01:34:00,27.1,10.4,29.88,ESE,112,2.0,2.0,49,0.00,,,0.00,WUHU21423XXSP,2013-03-22 05:34:00,
2013-03-22 01:41:00,26.4,10.2,29.87,SSE,157,2.7,4.7,50,0.00,,,0.00,WUHU21423XXSP,2013-03-22 05:41:00,
2013-03-22 01:47:00,26.6,10.8,29.87,SSE,157,0.0,3.4,51,0.00,,,0.00,WUHU21423XXSP,2013-03-22 05:47:00,
2013-03-22 01:54:00,26.4,10.7,29.87,SSE,157,1.8,1.8,51,0.00,,,0.00,WUHU21423XXSP,2013-03-22 05:54:00,
2013-03-22 02:04:00,26.4,10.7,29.87,South,180,0.0,1.8,51,0.00,,,0.00,WUHU21423XXSP,2013-03-22 06:04:00,
2013-03-22 02:09:00,26.1,10.7,29.87,East,90,0.0,3.6,51,0.00,,,0.00,WUHU21423XXSP,2013-03-22 06:09:00,
2013-03-22 02:15:00,25.3,10.1,29.87,ESE,112,0.0,4.7,52,0.00,,,0.00,WUHU21423XXSP,2013-03-22 06:15:00,
2013-03-22 02:22:00,25.0,9.8,29.89,East,90,0.0,1.3,52,0.00,,,0.00,WUHU21423XXSP,2013-03-22 06:22:00,
2013-03-22 02:28:00,25.7,10.0,29.89,West,270,2.5,2.5,51,0.00,,,0.00,WUHU21423XXSP,2013-03-22 06:28:00,
2013-03-22 02:34:00,27.0,10.6,29.89,SW,225,0.0,2.5,50,0.00,,,0.00,WUHU21423XXSP,2013-03-22 06:34:00,
2013-03-22 02:41:00,27.5,10.8,29.88,South,180,0.0,0.0,49,0.00,,,0.00,WUHU21423XXSP,2013-03-22 06:41:00,
2013-03-22 02:47:00,27.3,10.6,29.88,South,180,0.0,0.0,49,0.00,,,0.00,WUHU21423XXSP,2013-03-22 06:47:00,
2013-03-22 02:54:00,28.0,10.8,29.87,ENE,67,3.4,7.6,48,0.00,,,0.00,WUHU21423XXSP,2013-03-22 06:54:00,
2013-03-22 03:00:00,28.0,10.8,29.89,NW,315,0.0,3.4,48,0.00,,,0.00,WUHU21423XXSP,2013-03-22 07:00:00,
2013-03-22 03:07:00,28.0,10.8,29.89,SW,225,3.1,4.3,48,0.00,,,0.00,WUHU21423XXSP,2013-03-22 07:07:00,
2013-03-22 03:13:00,27.7,10.5,29.88,East,90,0.0,3.1,48,0.00,,,0.00,WUHU21423XXSP,2013-03-22 07:13:00,
2013-03-22 03:19:00,26.6,10.4,29.88,SSE,157,0.0,0.0,50,0.00,,,0.00,WUHU21423XXSP,2013-03-22 07:19:00,
2013-03-22 03:28:00,27.0,10.8,29.87,East,90,3.1,3.1,50,0.00,,,0.00,WUHU21423XXSP,2013-03-22 07:28:00,
2013-03-22 03:34:00,27.5,10.6,29.87,ENE,67,2.9,3.1,50,0.00,,,0.00,WUHU21423XXSP,2013-03-22 07:34:00,
2013-03-22 03:43:00,28.2,11.0,29.87,NNE,22,0.0,2.9,48,0.00,,,0.00,WUHU21423XXSP,2013-03-22 07:43:00,
2013-03-22 03:49:00,27.5,10.5,29.88,East,90,0.0,2.9,49,0.00,,,0.00,WUHU21423XXSP,2013-03-22 07:49:00,
2013-03-22 03:56:00,26.8,10.1,29.87,ESE,112,0.0,2.5,49,0.00,,,0.00,WUHU21423XXSP,2013-03-22 07:56:00,
2013-03-22 04:02:00,27.7,10.6,29.87,NW,315,0.0,2.5,49,0.00,,,0.00,WUHU21423XXSP,2013-03-22 08:02:00,
2013-03-22 04:09:00,28.2,11.0,29.87,West,270,0.0,1.6,48,0.00,,,0.00,WUHU21423XXSP,2013-03-22 08:09:00,
2013-03-22 04:15:00,28.0,10.8,29.87,WNW,292,0.0,0.0,48,0.00,,,0.00,WUHU21423XXSP,2013-03-22 08:15:00,
2013-03-22 04:21:00,27.5,10.6,29.87,West,270,2.7,2.7,49,0.00,,,0.00,WUHU21423XXSP,2013-03-22 08:21:00,
2013-03-22 04:28:00,27.7,11.0,29.87,WNW,292,0.7,2.7,49,0.00,,,0.00,WUHU21423XXSP,2013-03-22 08:28:00,
2013-03-22 04:34:00,28.0,11.3,29.87,NW,315,6.5,6.5,49,0.00,,,0.00,WUHU21423XXSP,2013-03-22 08:34:00,
2013-03-22 04:43:00,28.0,11.3,29.87,North,0,2.9,6.5,49,0.00,,,0.00,WUHU21423XXSP,2013-03-22 08:43:00,
2013-03-22 04:49:00,28.0,11.2,29.88,North,0,0.0,2.9,49,0.00,,,0.00,WUHU21423XXSP,2013-03-22 08:49:00,
2013-03-22 04:58:00,27.7,11.0,29.88,WNW,292,0.4,4.5,49,0.00,,,0.00,WUHU21423XXSP,2013-03-22 08:58:00,
2013-03-22 05:04:00,27.7,11.0,29.88,North,0,3.1,5.6,49,0.00,,,0.00,WUHU21423XXSP,2013-03-22 09:04:00,
2013-03-22 05:13:00,27.7,11.5,29.87,West,270,5.4,7.2,50,0.00,,,0.00,WUHU21423XXSP,2013-03-22 09:13:00,
2013-03-22 05:19:00,28.0,11.8,29.88,WNW,292,4.0,5.4,50,0.00,,,0.00,WUHU21423XXSP,2013-03-22 09:19:00,
2013-03-22 05:28:00,28.4,11.7,29.88,WNW,292,1.1,6.3,49,0.00,,,0.00,WUHU21423XXSP,2013-03-22 09:28:00,
2013-03-22 05:34:00,28.2,11.5,29.88,WNW,292,0.0,6.3,49,0.00,,,0.00,WUHU21423XXSP,2013-03-22 09:34:00,
2013-03-22 05:43:00,28.0,11.3,29.88,WNW,292,0.0,0.0,49,0.00,,,0.00,WUHU21423XXSP,2013-03-22 09:43:00,
2013-03-22 05:49:00,27.3,11.3,29.88,WNW,292,0.0,0.0,50,0.00,,,0.00,WUHU21423XXSP,2013-03-22 09:49:00,
2013-03-22 05:56:00,27.0,10.8,29.89,WNW,292,0.0,0.0,50,0.00,,,0.00,WUHU21423XXSP,2013-03-22 09:56:00,
2013-03-22 06:02:00,26.4,11.0,29.89,WNW,292,0.0,0.0,52,0.00,,,0.00,WUHU21423XXSP,2013-03-22 10:02:00,
2013-03-22 06:09:00,26.4,11.1,29.89,NNW,337,0.0,0.0,52,0.00,,,0.00,WUHU21423XXSP,2013-03-22 10:09:00,
2013-03-22 06:15:00,26.2,11.1,29.89,NNW,337,0.0,2.0,52,0.00,,,0.00,WUHU21423XXSP,2013-03-22 10:15:00,
2013-03-22 06:22:00,26.6,11.2,29.89,WNW,292,0.0,2.0,52,0.00,,,0.00,WUHU21423XXSP,2013-03-22 10:22:00,
2013-03-22 06:28:00,26.4,11.1,29.89,NW,315,0.0,0.0,52,0.00,,,0.00,WUHU21423XXSP,2013-03-22 10:28:00,
2013-03-22 06:34:00,26.2,10.9,29.89,NW,315,0.0,0.0,52,0.00,,,0.00,WUHU21423XXSP,2013-03-22 10:34:00,
2013-03-22 06:41:00,26.4,11.5,29.90,NW,315,0.0,0.0,53,0.00,,,0.00,WUHU21423XXSP,2013-03-22 10:41:00,
2013-03-22 06:47:00,25.3,10.9,29.90,West,270,0.0,0.0,54,0.00,,,0.00,WUHU21423XXSP,2013-03-22 10:47:00,
2013-03-22 06:53:00,24.6,11.1,29.90,West,270,0.0,0.0,56,0.00,,,0.00,WUHU21423XXSP,2013-03-22 10:53:00,
2013-03-22 07:00:00,24.1,10.9,29.90,West,270,0.0,0.0,57,0.00,,,0.00,WUHU21423XXSP,2013-03-22 11:00:00,
2013-03-22 07:06:00,23.7,11.0,29.90,West,270,0.0,0.0,58,0.00,,,0.00,WUHU21423XXSP,2013-03-22 11:06:00,
2013-03-22 07:13:00,24.3,11.4,29.91,West,270,0.0,0.0,58,0.00,,,0.00,WUHU21423XXSP,2013-03-22 11:13:00,
2013-03-22 07:19:00,23.7,11.4,29.91,West,270,0.0,0.0,58,0.00,,,0.00,WUHU21423XXSP,2013-03-22 11:19:00,
2013-03-22 07:28:00,23.2,11.1,29.91,West,270,0.0,0.0,59,0.00,,,0.00,WUHU21423XXSP,2013-03-22 11:28:00,
2013-03-22 07:34:00,23.2,11.3,29.91,West,270,0.0,0.0,60,0.00,,,0.00,WUHU21423XXSP,2013-03-22 11:34:00,
2013-03-22 07:41:00,22.8,11.0,29.92,West,270,0.0,0.0,60,0.00,,,0.00,WUHU21423XXSP,2013-03-22 11:41:00,
2013-03-22 07:47:00,23.0,11.5,29.92,West,270,0.0,0.0,60,0.00,,,0.00,WUHU21423XXSP,2013-03-22 11:47:00,
2013-03-22 07:53:00,24.1,12.2,29.92,West,270,0.0,0.0,61,0.00,,,0.00,WUHU21423XXSP,2013-03-22 11:53:00,
2013-03-22 08:00:00,24.6,13.1,29.92,West,270,0.0,0.0,61,0.00,,,0.00,WUHU21423XXSP,2013-03-22 12:00:00,
2013-03-22 08:06:00,25.5,13.7,29.92,West,270,0.0,0.0,61,0.00,,,0.00,WUHU21423XXSP,2013-03-22 12:06:00,
2013-03-22 08:13:00,26.1,14.1,29.92,NE,45,0.0,2.9,60,0.00,,,0.00,WUHU21423XXSP,2013-03-22 12:13:00,
2013-03-22 08:19:00,27.1,15.1,29.92,NE,45,0.0,2.9,60,0.00,,,0.00,WUHU21423XXSP,2013-03-22 12:19:00,
2013-03-22 08:26:00,27.5,14.8,29.93,NNE,22,0.0,0.0,59,0.00,,,0.00,WUHU21423XXSP,2013-03-22 12:26:00,
2013-03-22 08:32:00,28.8,16.7,29.93,ENE,67,0.0,0.0,60,0.00,,,0.00,WUHU21423XXSP,2013-03-22 12:32:00,
2013-03-22 08:38:00,30.0,17.1,29.92,ENE,67,0.0,0.0,57,0.00,,,0.00,WUHU21423XXSP,2013-03-22 12:38:00,
2013-03-22 08:45:00,30.9,17.0,29.93,SE,135,0.0,0.0,56,0.00,,,0.00,WUHU21423XXSP,2013-03-22 12:45:00,
2013-03-22 08:51:00,32.2,17.4,29.93,SE,135,0.0,2.7,54,0.00,,,0.00,WUHU21423XXSP,2013-03-22 12:51:00,
2013-03-22 08:58:00,33.1,17.4,29.93,SSE,157,2.2,2.7,53,0.00,,,0.00,WUHU21423XXSP,2013-03-22 12:58:00,
2013-03-22 09:04:00,33.6,17.8,29.93,ESE,112,0.9,2.2,52,0.00,,,0.00,WUHU21423XXSP,2013-03-22 13:04:00,
2013-03-22 09:11:00,34.3,17.6,29.93,SE,135,0.0,2.7,50,0.00,,,0.00,WUHU21423XXSP,2013-03-22 13:11:00,
2013-03-22 09:17:00,34.3,17.1,29.93,SSE,157,0.0,2.7,49,0.00,,,0.00,WUHU21423XXSP,2013-03-22 13:17:00,
2013-03-22 09:23:00,34.5,16.8,29.93,SE,135,0.0,0.0,48,0.00,,,0.00,WUHU21423XXSP,2013-03-22 13:23:00,
2013-03-22 09:30:00,34.7,17.6,29.93,SW,225,0.0,5.6,48,0.00,,,0.00,WUHU21423XXSP,2013-03-22 13:30:00,
2013-03-22 09:36:00,34.3,16.1,29.93,SE,135,0.0,5.6,47,0.00,,,0.00,WUHU21423XXSP,2013-03-22 13:36:00,
2013-03-22 09:43:00,35.2,17.5,29.93,SSE,157,0.0,3.4,47,0.00,,,0.00,WUHU21423XXSP,2013-03-22 13:43:00,
2013-03-22 09:49:00,35.4,17.1,29.93,WNW,292,0.0,0.0,46,0.00,,,0.00,WUHU21423XXSP,2013-03-22 13:49:00,
2013-03-22 09:55:00,36.3,17.9,29.93,SSE,157,0.0,1.6,46,0.00,,,0.00,WUHU21423XXSP,2013-03-22 13:55:00,
2013-03-22 10:02:00,36.0,17.1,29.93,WNW,292,0.0,4.0,46,0.00,,,0.00,WUHU21423XXSP,2013-03-22 14:02:00,
2013-03-22 10:08:00,36.0,17.3,29.93,West,270,0.0,4.0,46,0.00,,,0.00,WUHU21423XXSP,2013-03-22 14:08:00,
2013-03-22 10:15:00,36.7,16.9,29.93,ENE,67,0.9,2.0,45,0.00,,,0.00,WUHU21423XXSP,2013-03-22 14:15:00,
2013-03-22 10:21:00,37.2,17.2,29.93,East,90,2.2,2.2,44,0.00,,,0.00,WUHU21423XXSP,2013-03-22 14:21:00,
2013-03-22 10:28:00,37.9,17.8,29.93,ENE,67,0.0,3.8,44,0.00,,,0.00,WUHU21423XXSP,2013-03-22 14:28:00,
2013-03-22 10:34:00,39.0,18.8,29.93,ENE,67,1.6,1.6,44,0.00,,,0.00,WUHU21423XXSP,2013-03-22 14:34:00,
2013-03-22 10:40:00,39.6,17.9,29.92,WNW,292,0.0,1.6,42,0.00,,,0.00,WUHU21423XXSP,2013-03-22 14:40:00,
2013-03-22 10:47:00,39.7,18.4,29.92,NNE,22,0.0,0.0,42,0.00,,,0.00,WUHU21423XXSP,2013-03-22 14:47:00,
2013-03-22 10:53:00,40.3,18.4,29.92,NNE,22,0.0,1.8,41,0.00,,,0.00,WUHU21423XXSP,2013-03-22 14:53:00,
2013-03-22 11:00:00,40.6,18.7,29.92,West,270,4.3,4.7,41,0.00,,,0.00,WUHU21423XXSP,2013-03-22 15:00:00,
2013-03-22 11:06:00,39.9,18.6,29.92,West,270,2.7,4.3,42,0.00,,,0.00,WUHU21423XXSP,2013-03-22 15:06:00,
2013-03-22 11:12:00,39.7,17.9,29.91,SSW,202,0.0,4.3,41,0.00,,,0.00,WUHU21423XXSP,2013-03-22 15:12:00,
2013-03-22 11:19:00,40.8,18.9,29.91,NW,315,2.9,2.9,41,0.00,,,0.00,WUHU21423XXSP,2013-03-22 15:19:00,
2013-03-22 11:25:00,41.2,19.3,29.91,South,180,1.6,2.9,40,0.00,,,0.00,WUHU21423XXSP,2013-03-22 15:25:00,
2013-03-22 11:32:00,40.8,18.9,29.91,SW,225,6.3,6.3,41,0.00,,,0.00,WUHU21423XXSP,2013-03-22 15:32:00,
2013-03-22 11:38:00,42.1,20.5,29.91,SSW,202,2.7,6.3,42,0.00,,,0.00,WUHU21423XXSP,2013-03-22 15:38:00,
2013-03-22 11:45:00,42.1,19.5,29.91,West,270,0.0,3.1,40,0.00,,,0.00,WUHU21423XXSP,2013-03-22 15:45:00,
2013-03-22 11:51:00,42.1,20.0,29.91,SSE,157,0.0,3.8,41,0.00,,,0.00,WUHU21423XXSP,2013-03-22 15:51:00,
2013-03-22 11:57:00,42.4,19.8,29.90,West,270,2.2,4.7,40,0.00,,,0.00,WUHU21423XXSP,2013-03-22 15:57:00,
2013-03-22 12:04:00,43.3,20.6,29.91,WSW,247,4.5,4.7,40,0.00,,,0.00,WUHU21423XXSP,2013-03-22 16:04:00,
2013-03-22 12:10:00,43.0,19.6,29.91,NE,45,0.0,5.4,39,0.00,,,0.00,WUHU21423XXSP,2013-03-22 16:10:00,
2013-03-22 12:17:00,43.7,19.6,29.90,SE,135,2.5,5.4,38,0.00,,,0.00,WUHU21423XXSP,2013-03-22 16:17:00,
2013-03-22 12:23:00,43.5,19.3,29.90,ESE,112,0.9,3.1,38,0.00,,,0.00,WUHU21423XXSP,2013-03-22 16:23:00,
2013-03-22 12:30:00,43.9,19.8,29.90,ESE,112,0.9,2.5,38,0.00,,,0.00,WUHU21423XXSP,2013-03-22 16:30:00,
2013-03-22 12:36:00,43.3,18.6,29.89,East,90,1.8,6.7,37,0.00,,,0.00,WUHU21423XXSP,2013-03-22 16:36:00,
2013-03-22 12:42:00,43.2,19.1,29.89,NE,45,2.7,6.7,38,0.00,,,0.00,WUHU21423XXSP,2013-03-22 16:42:00,
2013-03-22 12:49:00,44.2,20.1,29.89,NE,45,6.9,6.9,38,0.00,,,0.00,WUHU21423XXSP,2013-03-22 16:49:00,
2013-03-22 12:55:00,44.1,19.9,29.89,ENE,67,5.6,6.9,38,0.00,,,0.00,WUHU21423XXSP,2013-03-22 16:55:00,
2013-03-22 13:02:00,45.1,20.2,29.89,NE,45,4.7,6.3,37,0.00,,,0.00,WUHU21423XXSP,2013-03-22 17:02:00,
2013-03-22 13:08:00,45.3,19.7,29.89,ENE,67,0.0,4.7,36,0.00,,,0.00,WUHU21423XXSP,2013-03-22 17:08:00,
2013-03-22 13:14:00,46.2,19.9,29.88,ENE,67,2.7,3.6,35,0.00,,,0.00,WUHU21423XXSP,2013-03-22 17:14:00,
2013-03-22 13:23:00,46.0,19.7,29.88,WNW,292,7.6,7.6,36,0.00,,,0.00,WUHU21423XXSP,2013-03-22 17:23:00,
2013-03-22 13:29:00,45.7,19.4,29.88,West,270,5.1,9.8,35,0.00,,,0.00,WUHU21423XXSP,2013-03-22 17:29:00,
2013-03-22 13:36:00,46.2,19.9,29.87,NNW,337,0.0,9.8,35,0.00,,,0.00,WUHU21423XXSP,2013-03-22 17:36:00,
2013-03-22 13:42:00,47.1,20.0,29.87,ESE,112,4.3,4.3,34,0.00,,,0.00,WUHU21423XXSP,2013-03-22 17:42:00,
2013-03-22 13:49:00,47.1,20.7,29.87,NNE,22,0.0,6.5,35,0.00,,,0.00,WUHU21423XXSP,2013-03-22 17:49:00,
2013-03-22 13:55:00,48.2,22.2,29.87,WNW,292,7.8,7.8,35,0.00,,,0.00,WUHU21423XXSP,2013-03-22 17:55:00,
2013-03-22 14:02:00,48.0,21.5,29.87,West,270,2.9,7.8,35,0.00,,,0.00,WUHU21423XXSP,2013-03-22 18:02:00,
2013-03-22 14:08:00,48.0,20.8,29.86,West,270,1.1,6.9,34,0.00,,,0.00,WUHU21423XXSP,2013-03-22 18:08:00,
2013-03-22 14:14:00,48.7,22.1,29.86,West,270,4.7,4.7,35,0.00,,,0.00,WUHU21423XXSP,2013-03-22 18:14:00,
2013-03-22 14:21:00,49.3,22.4,29.86,NW,315,1.3,4.7,35,0.00,,,0.00,WUHU21423XXSP,2013-03-22 18:21:00,
2013-03-22 14:27:00,49.5,22.3,29.86,West,270,4.9,4.9,35,0.00,,,0.00,WUHU21423XXSP,2013-03-22 18:27:00,
2013-03-22 14:34:00,49.6,22.2,29.85,NNW,337,4.5,5.8,34,0.00,,,0.00,WUHU21423XXSP,2013-03-22 18:34:00,
2013-03-22 15:06:00,50.2,22.0,29.84,West,270,4.0,4.0,33,0.00,,,0.00,WUHU21423XXSP,2013-03-22 19:06:00,
2013-03-22 15:12:00,50.2,22.8,29.83,SSE,157,1.6,4.0,33,0.00,,,0.00,WUHU21423XXSP,2013-03-22 19:12:00,
2013-03-22 15:19:00,51.3,23.5,29.83,NNW,337,3.4,3.4,33,0.00,,,0.00,WUHU21423XXSP,2013-03-22 19:19:00,
2013-03-22 15:25:00,50.7,21.8,29.83,NNW,337,2.0,3.4,32,0.00,,,0.00,WUHU21423XXSP,2013-03-22 19:25:00,
2013-03-22 15:31:00,51.1,22.1,29.82,NW,315,2.5,2.5,32,0.00,,,0.00,WUHU21423XXSP,2013-03-22 19:31:00,
2013-03-22 15:38:00,51.8,22.4,29.82,WNW,292,3.6,3.6,32,0.00,,,0.00,WUHU21423XXSP,2013-03-22 19:38:00,
2013-03-22 15:44:00,52.0,23.6,29.82,WSW,247,0.9,3.6,33,0.00,,,0.00,WUHU21423XXSP,2013-03-22 19:44:00,
2013-03-22 15:53:00,52.3,23.9,29.82,NW,315,0.0,2.7,33,0.00,,,0.00,WUHU21423XXSP,2013-03-22 19:53:00,
2013-03-22 15:59:00,52.3,24.4,29.82,NNE,22,1.8,2.7,32,0.00,,,0.00,WUHU21423XXSP,2013-03-22 19:59:00,
2013-03-22 16:06:00,52.3,23.6,29.82,North,0,4.9,4.9,33,0.00,,,0.00,WUHU21423XXSP,2013-03-22 20:06:00,
2013-03-22 16:12:00,52.7,23.6,29.82,ENE,67,0.9,4.9,32,0.00,,,0.00,WUHU21423XXSP,2013-03-22 20:12:00,
2013-03-22 16:19:00,51.6,21.9,29.81,WNW,292,3.8,3.8,31,0.00,,,0.00,WUHU21423XXSP,2013-03-22 20:19:00,
2013-03-22 16:25:00,52.2,22.4,29.82,East,90,0.0,3.8,31,0.00,,,0.00,WUHU21423XXSP,2013-03-22 20:25:00,
2013-03-22 16:31:00,52.5,23.2,29.82,WNW,292,1.6,6.7,32,0.00,,,0.00,WUHU21423XXSP,2013-03-22 20:31:00,
2013-03-22 16:38:00,52.7,22.9,29.82,NW,315,2.5,6.7,31,0.00,,,0.00,WUHU21423XXSP,2013-03-22 20:38:00,
2013-03-22 16:44:00,52.9,22.7,29.82,North,0,2.9,2.9,31,0.00,,,0.00,WUHU21423XXSP,2013-03-22 20:44:00,
2013-03-22 16:51:00,52.5,22.7,29.82,West,270,0.0,4.5,31,0.00,,,0.00,WUHU21423XXSP,2013-03-22 20:51:00,
2013-03-22 16:57:00,52.7,23.0,29.82,WNW,292,7.4,7.4,31,0.00,,,0.00,WUHU21423XXSP,2013-03-22 20:57:00,
2013-03-22 17:03:00,53.4,24.2,29.82,West,270,4.3,7.4,32,0.00,,,0.00,WUHU21423XXSP,2013-03-22 21:03:00,
2013-03-22 17:10:00,52.7,22.9,29.82,WSW,247,4.7,4.7,31,0.00,,,0.00,WUHU21423XXSP,2013-03-22 21:10:00,
2013-03-22 17:16:00,52.9,23.0,29.82,NW,315,1.8,4.7,31,0.00,,,0.00,WUHU21423XXSP,2013-03-22 21:16:00,
2013-03-22 17:23:00,52.3,22.0,29.82,WNW,292,2.5,3.8,30,0.00,,,0.00,WUHU21423XXSP,2013-03-22 21:23:00,
2013-03-22 17:29:00,52.5,22.7,29.83,NW,315,0.0,2.9,31,0.00,,,0.00,WUHU21423XXSP,2013-03-22 21:29:00,
2013-03-22 17:36:00,53.2,21.7,29.83,North,0,0.0,2.9,29,0.00,,,0.00,WUHU21423XXSP,2013-03-22 21:36:00,
2013-03-22 17:42:00,52.9,21.4,29.83,West,270,0.0,1.3,29,0.00,,,0.00,WUHU21423XXSP,2013-03-22 21:42:00,
2013-03-22 17:48:00,51.6,20.3,29.83,North,0,0.0,4.3,29,0.00,,,0.00,WUHU21423XXSP,2013-03-22 21:48:00,
2013-03-22 17:55:00,50.9,21.7,29.83,North,0,0.0,4.3,30,0.00,,,0.00,WUHU21423XXSP,2013-03-22 21:55:00,
2013-03-22 18:01:00,50.2,20.1,29.83,West,270,2.2,2.2,32,0.00,,,0.00,WUHU21423XXSP,2013-03-22 22:01:00,
2013-03-22 18:08:00,49.6,20.8,29.83,WNW,292,3.1,3.1,32,0.00,,,0.00,WUHU21423XXSP,2013-03-22 22:08:00,
2013-03-22 18:14:00,49.1,21.1,29.83,WNW,292,4.0,6.5,33,0.00,,,0.00,WUHU21423XXSP,2013-03-22 22:14:00,
2013-03-22 18:21:00,49.3,21.2,29.84,NNW,337,5.4,5.4,33,0.00,,,0.00,WUHU21423XXSP,2013-03-22 22:21:00,
2013-03-22 18:27:00,48.9,21.1,29.84,WNW,292,6.7,6.7,33,0.00,,,0.00,WUHU21423XXSP,2013-03-22 22:27:00,
2013-03-22 18:33:00,48.6,21.3,29.84,WNW,292,2.7,6.7,33,0.00,,,0.00,WUHU21423XXSP,2013-03-22 22:33:00,
2013-03-22 18:40:00,48.0,20.2,29.84,West,270,3.1,4.5,33,0.00,,,0.00,WUHU21423XXSP,2013-03-22 22:40:00,
2013-03-22 18:46:00,47.7,20.5,29.84,WNW,292,4.5,4.5,34,0.00,,,0.00,WUHU21423XXSP,2013-03-22 22:46:00,
2013-03-22 18:53:00,47.1,20.3,29.84,West,270,4.9,4.9,34,0.00,,,0.00,WUHU21423XXSP,2013-03-22 22:53:00,
2013-03-22 18:59:00,47.1,20.0,29.85,West,270,2.5,4.9,34,0.00,,,0.00,WUHU21423XXSP,2013-03-22 22:59:00,
2013-03-22 19:06:00,46.6,20.2,29.85,WNW,292,3.8,3.8,35,0.00,,,0.00,WUHU21423XXSP,2013-03-22 23:06:00,
2013-03-22 19:12:00,46.0,19.7,29.85,West,270,2.0,3.8,35,0.00,,,0.00,WUHU21423XXSP,2013-03-22 23:12:00,
2013-03-22 19:18:00,45.5,19.4,29.86,West,270,2.7,2.7,36,0.00,,,0.00,WUHU21423XXSP,2013-03-22 23:18:00,
2013-03-22 19:25:00,45.5,19.2,29.86,West,270,2.7,3.8,35,0.00,,,0.00,WUHU21423XXSP,2013-03-22 23:25:00,
2013-03-22 19:31:00,45.0,19.6,29.86,West,270,0.0,3.8,36,0.00,,,0.00,WUHU21423XXSP,2013-03-22 23:31:00,
2013-03-22 19:38:00,44.6,19.7,29.86,West,270,0.0,2.2,37,0.00,,,0.00,WUHU21423XXSP,2013-03-22 23:38:00,
2013-03-22 19:44:00,44.6,19.6,29.87,West,270,0.4,2.2,37,0.00,,,0.00,WUHU21423XXSP,2013-03-22 23:44:00,
2013-03-22 19:50:00,44.4,19.6,29.87,West,270,0.0,0.9,37,0.00,,,0.00,WUHU21423XXSP,2013-03-22 23:50:00,
2013-03-22 19:57:00,44.6,19.7,29.87,West,270,1.1,1.6,37,0.00,,,0.00,WUHU21423XXSP,2013-03-22 23:57:00,
2013-03-22 20:03:00,44.2,19.6,29.87,West,270,2.7,2.7,38,0.00,,,0.00,WUHU21423XXSP,2013-03-23 00:03:00,
2013-03-22 20:10:00,43.9,19.8,29.87,West,270,4.0,4.0,38,0.00,,,0.00,WUHU21423XXSP,2013-03-23 00:10:00,
2013-03-22 20:16:00,43.3,19.9,29.87,West,270,1.1,4.0,39,0.00,,,0.00,WUHU21423XXSP,2013-03-23 00:16:00,
2013-03-22 20:23:00,43.0,19.8,29.87,West,270,0.0,3.1,39,0.00,,,0.00,WUHU21423XXSP,2013-03-23 00:23:00,
2013-03-22 20:29:00,43.3,19.3,29.88,West,270,2.9,2.9,39,0.00,,,0.00,WUHU21423XXSP,2013-03-23 00:29:00,
2013-03-22 20:35:00,43.5,19.4,29.88,WNW,292,0.0,2.9,38,0.00,,,0.00,WUHU21423XXSP,2013-03-23 00:35:00,
2013-03-22 20:42:00,44.1,19.8,29.88,WNW,292,3.1,3.1,38,0.00,,,0.00,WUHU21423XXSP,2013-03-23 00:42:00,
2013-03-22 20:48:00,43.9,19.8,29.89,WNW,292,0.0,3.1,38,0.00,,,0.00,WUHU21423XXSP,2013-03-23 00:48:00,
2013-03-22 20:55:00,43.7,19.8,29.89,NW,315,2.0,3.4,38,0.00,,,0.00,WUHU21423XXSP,2013-03-23 00:55:00,
2013-03-22 21:03:00,43.5,19.4,29.89,WNW,292,0.9,2.7,38,0.00,,,0.00,WUHU21423XXSP,2013-03-23 01:03:00,
2013-03-22 21:10:00,43.5,19.4,29.89,NW,315,3.4,3.4,38,0.00,,,0.00,WUHU21423XXSP,2013-03-23 01:10:00,
2013-03-22 21:16:00,43.3,19.3,29.89,WNW,292,0.0,3.4,38,0.00,,,0.00,WUHU21423XXSP,2013-03-23 01:16:00,
2013-03-22 21:22:00,43.3,19.3,29.90,WNW,292,1.1,4.0,38,0.00,,,0.00,WUHU21423XXSP,2013-03-23 01:22:00,
2013-03-22 21:29:00,42.6,18.0,29.90,West,270,0.0,4.0,37,0.00,,,0.00,WUHU21423XXSP,2013-03-23 01:29:00,
2013-03-22 21:35:00,42.1,18.5,29.90,North,0,0.0,2.2,38,0.00,,,0.00,WUHU21423XXSP,2013-03-23 01:35:00,
2013-03-22 21:42:00,41.4,17.7,29.90,NE,45,2.7,2.7,39,0.00,,,0.00,WUHU21423XXSP,2013-03-23 01:42:00,
2013-03-22 21:48:00,40.8,18.3,29.91,NE,45,2.7,2.7,39,0.00,,,0.00,WUHU21423XXSP,2013-03-23 01:48:00,
2013-03-22 21:55:00,40.6,18.2,29.91,SW,225,0.0,2.7,40,0.00,,,0.00,WUHU21423XXSP,2013-03-23 01:55:00,
2013-03-22 22:01:00,40.8,18.3,29.91,NE,45,0.0,0.0,40,0.00,,,0.00,WUHU21423XXSP,2013-03-23 02:01:00,
2013-03-22 22:07:00,39.4,18.1,29.91,ESE,112,0.0,2.5,42,0.00,,,0.00,WUHU21423XXSP,2013-03-23 02:07:00,
2013-03-22 22:14:00,38.5,17.3,29.91,ENE,67,2.0,2.0,42,0.00,,,0.00,WUHU21423XXSP,2013-03-23 02:14:00,
2013-03-22 22:20:00,39.9,18.6,29.92,SSW,202,0.0,2.0,42,0.00,,,0.00,WUHU21423XXSP,2013-03-23 02:20:00,
2013-03-22 22:27:00,38.8,18.6,29.92,NE,45,0.7,0.7,44,0.00,,,0.00,WUHU21423XXSP,2013-03-23 02:27:00,
2013-03-22 22:33:00,37.2,17.5,29.92,East,90,0.0,0.7,44,0.00,,,0.00,WUHU21423XXSP,2013-03-23 02:33:00,
2013-03-22 22:40:00,36.5,17.6,29.92,East,90,0.0,0.0,46,0.00,,,0.00,WUHU21423XXSP,2013-03-23 02:40:00,
2013-03-22 22:46:00,36.0,17.6,29.92,NNE,22,0.0,0.0,47,0.00,,,0.00,WUHU21423XXSP,2013-03-23 02:46:00,
2013-03-22 22:52:00,34.7,18.0,29.92,WNW,292,0.0,4.3,50,0.00,,,0.00,WUHU21423XXSP,2013-03-23 02:52:00,
2013-03-22 22:59:00,34.3,18.0,29.92,WNW,292,0.0,1.1,51,0.00,,,0.00,WUHU21423XXSP,2013-03-23 02:59:00,
2013-03-22 23:05:00,35.8,18.5,29.92,WNW,292,0.0,0.0,49,0.00,,,0.00,WUHU21423XXSP,2013-03-23 03:05:00,
2013-03-22 23:12:00,34.3,18.0,29.92,WNW,292,0.0,0.0,51,0.00,,,0.00,WUHU21423XXSP,2013-03-23 03:12:00,
2013-03-22 23:18:00,33.8,17.9,29.92,WNW,292,0.0,0.0,52,0.00,,,0.00,WUHU21423XXSP,2013-03-23 03:18:00,
2013-03-22 23:25:00,33.1,18.1,29.92,WNW,292,0.0,0.0,54,0.00,,,0.00,WUHU21423XXSP,2013-03-23 03:25:00,
2013-03-22 23:31:00,33.3,17.7,29.92,WNW,292,0.0,0.0,53,0.00,,,0.00,WUHU21423XXSP,2013-03-23 03:31:00,
2013-03-22 23:37:00,33.6,18.6,29.92,West,270,0.0,0.0,54,0.00,,,0.00,WUHU21423XXSP,2013-03-23 03:37:00,
2013-03-22 23:44:00,34.3,19.3,29.92,WNW,292,0.0,2.2,54,0.00,,,0.00,WUHU21423XXSP,2013-03-23 03:44:00,
2013-03-22 23:50:00,36.5,19.7,29.92,NNW,337,0.0,2.2,50,0.00,,,0.00,WUHU21423XXSP,2013-03-23 03:50:00,
2013-03-22 23:57:00,35.2,18.9,29.92,NNW,337,0.0,0.0,51,0.00,,,0.00,WUHU21423XXSP,2013-03-23 03:57:00,